createdAt,value
2023-03-21T00:01:58.886Z,100.00
2023-03-21T00:04:28.414Z,100.00
2023-03-21T00:06:56.391Z,100.00
2023-03-21T00:09:23.304Z,100.00
2023-03-21T00:11:49.860Z,100.00
2023-03-21T00:14:18.762Z,100.00
2023-03-21T00:16:50.656Z,100.00
2023-03-21T00:19:19.242Z,100.00
2023-03-21T00:21:59.599Z,100.00
2023-03-21T00:24:32.099Z,100.00
2023-03-21T00:27:10.751Z,100.00
2023-03-21T00:29:44.871Z,100.00
2023-03-21T00:32:11.428Z,100.00
2023-03-21T00:34:43.314Z,100.00
2023-03-21T00:37:17.363Z,100.00
2023-03-21T00:39:47.617Z,100.00
2023-03-21T00:42:14.229Z,100.00
2023-03-21T00:44:41.730Z,100.00
2023-03-21T00:47:08.319Z,100.00
2023-03-21T00:49:34.846Z,100.00
2023-03-21T00:52:14.569Z,100.00
2023-03-21T00:54:43.515Z,100.00
2023-03-21T00:57:09.888Z,100.00
2023-03-21T00:59:36.379Z,100.00
2023-03-21T01:02:07.177Z,100.00
2023-03-21T01:04:34.210Z,100.00
2023-03-21T01:07:00.610Z,100.00
2023-03-21T01:09:27.124Z,100.00
2023-03-21T01:11:53.640Z,100.00
2023-03-21T01:14:23.591Z,100.00
2023-03-21T01:16:53.513Z,100.00
2023-03-21T01:19:27.626Z,100.00
2023-03-21T01:21:56.055Z,100.00
2023-03-21T01:24:22.610Z,100.00
2023-03-21T01:26:48.992Z,100.00
2023-03-21T01:29:15.619Z,100.00
2023-03-21T01:31:42.155Z,100.00
2023-03-21T01:34:08.799Z,100.00
2023-03-21T01:36:35.333Z,100.00
2023-03-21T01:39:01.758Z,100.00
2023-03-21T01:41:42.109Z,100.00
2023-03-21T01:44:18.997Z,100.00
2023-03-21T01:46:54.535Z,100.00
2023-03-21T01:49:34.418Z,100.00
2023-03-21T01:52:10.167Z,100.00
2023-03-21T01:54:39.022Z,100.00
2023-03-21T01:57:11.607Z,100.00
2023-03-21T01:59:41.065Z,100.00
2023-03-21T02:02:09.972Z,100.00
2023-03-21T02:04:36.437Z,100.00
2023-03-21T02:07:17.734Z,100.00
2023-03-21T02:09:47.225Z,100.00
2023-03-21T02:12:13.563Z,100.00
2023-03-21T02:14:39.988Z,100.00
2023-03-21T02:17:21.518Z,100.00
2023-03-21T02:20:08.757Z,100.00
2023-03-21T02:23:16.206Z,100.00
2023-03-21T02:25:54.850Z,100.00
2023-03-21T02:28:59.814Z,100.00
2023-03-21T02:31:33.620Z,100.00
2023-03-21T02:34:09.479Z,100.00
2023-03-21T02:37:08.597Z,100.00
2023-03-21T02:39:59.872Z,100.00
2023-03-21T02:42:26.401Z,100.00
2023-03-21T02:45:03.277Z,100.00
2023-03-21T02:47:44.415Z,100.00
2023-03-21T02:50:24.671Z,100.00
2023-03-21T02:52:51.044Z,100.00
2023-03-21T02:55:20.453Z,100.00
2023-03-21T02:57:47.229Z,100.00
2023-03-21T03:00:17.844Z,100.00
2023-03-21T03:02:44.878Z,100.00
2023-03-21T03:05:21.219Z,100.00
2023-03-21T03:08:22.101Z,100.00
2023-03-21T03:10:53.121Z,100.00
2023-03-21T03:13:38.556Z,100.00
2023-03-21T03:16:18.486Z,100.00
2023-03-21T03:18:49.875Z,100.00
2023-03-21T03:21:35.232Z,100.00
2023-03-21T03:24:07.116Z,100.00
2023-03-21T03:26:39.551Z,100.00
2023-03-21T03:29:11.857Z,100.00
2023-03-21T03:31:40.847Z,100.00
2023-03-21T03:34:13.143Z,100.00
2023-03-21T03:36:42.277Z,100.00
2023-03-21T03:39:10.677Z,100.00
2023-03-21T03:42:15.546Z,100.00
2023-03-21T03:44:51.598Z,100.00
2023-03-21T03:47:55.999Z,100.00
2023-03-21T03:50:41.542Z,100.00
2023-03-21T03:53:21.144Z,100.00
2023-03-21T03:55:47.520Z,100.00
2023-03-21T03:58:22.831Z,100.00
2023-03-21T04:00:50.925Z,100.00
2023-03-21T04:03:18.610Z,100.00
2023-03-21T04:05:48.000Z,100.00
2023-03-21T04:08:15.357Z,100.00
2023-03-21T04:10:42.568Z,100.00
2023-03-21T04:13:09.060Z,100.00
2023-03-21T04:15:35.864Z,100.00
2023-03-21T04:18:02.260Z,100.00
2023-03-21T04:20:36.469Z,100.00
2023-03-21T04:23:03.178Z,100.00
2023-03-21T04:25:33.880Z,100.00
2023-03-21T04:28:00.756Z,100.00
2023-03-21T04:30:27.156Z,100.00
2023-03-21T04:32:56.975Z,100.00
2023-03-21T04:35:23.838Z,100.00
2023-03-21T04:37:50.632Z,100.00
2023-03-21T04:40:19.085Z,100.00
2023-03-21T04:42:46.635Z,100.00
2023-03-21T04:45:13.983Z,100.00
2023-03-21T04:47:41.142Z,100.00
2023-03-21T04:50:08.263Z,100.00
2023-03-21T04:52:34.918Z,100.00
2023-03-21T04:55:02.042Z,100.00
2023-03-21T04:57:28.583Z,100.00
2023-03-21T04:59:54.949Z,100.00
2023-03-21T05:02:21.488Z,100.00
2023-03-21T05:04:47.827Z,100.00
2023-03-21T05:07:14.209Z,100.00
2023-03-21T05:09:40.616Z,100.00
2023-03-21T05:12:07.246Z,100.00
2023-03-21T05:14:33.619Z,100.00
2023-03-21T05:17:01.842Z,100.00
2023-03-21T05:19:35.989Z,100.00
2023-03-21T05:22:09.713Z,100.00
2023-03-21T05:24:39.172Z,100.00
2023-03-21T05:27:05.672Z,100.00
2023-03-21T05:29:32.678Z,100.00
2023-03-21T05:31:59.347Z,100.00
2023-03-21T05:34:27.225Z,100.00
2023-03-21T05:36:53.921Z,100.00
2023-03-21T05:39:20.509Z,100.00
2023-03-21T05:41:46.898Z,100.00
2023-03-21T05:44:13.456Z,100.00
2023-03-21T05:46:39.848Z,100.00
2023-03-21T05:49:06.460Z,100.00
2023-03-21T05:51:32.811Z,100.00
2023-03-21T05:53:59.233Z,100.00
2023-03-21T05:56:25.588Z,100.00
2023-03-21T05:58:51.978Z,100.00
2023-03-21T06:01:18.770Z,100.00
2023-03-21T06:03:46.441Z,100.00
2023-03-21T06:06:13.017Z,100.00
2023-03-21T06:08:39.455Z,100.00
2023-03-21T06:11:06.512Z,100.00
2023-03-21T06:13:32.983Z,100.00
2023-03-21T06:15:59.420Z,100.00
2023-03-21T06:18:25.998Z,100.00
2023-03-21T06:20:52.367Z,100.00
2023-03-21T06:23:18.923Z,100.00
2023-03-21T06:25:45.270Z,100.00
2023-03-21T06:28:11.820Z,100.00
2023-03-21T06:30:38.149Z,100.00
2023-03-21T06:33:04.502Z,100.00
2023-03-21T06:35:31.066Z,100.00
2023-03-21T06:37:59.064Z,100.00
2023-03-21T06:40:25.490Z,100.00
2023-03-21T06:42:51.950Z,100.00
2023-03-21T06:45:18.344Z,100.00
2023-03-21T06:47:45.318Z,100.00
2023-03-21T06:50:11.818Z,100.00
2023-03-21T06:52:38.250Z,100.00
2023-03-21T06:55:04.925Z,100.00
2023-03-21T06:57:31.325Z,100.00
2023-03-21T06:59:57.665Z,100.00
2023-03-21T07:02:24.070Z,100.00
2023-03-21T07:04:50.873Z,100.00
2023-03-21T07:07:17.270Z,100.00
2023-03-21T07:09:43.873Z,100.00
2023-03-21T07:12:11.090Z,100.00
2023-03-21T07:14:37.510Z,100.00
2023-03-21T07:17:03.905Z,100.00
2023-03-21T07:19:30.792Z,100.00
2023-03-21T07:21:57.373Z,100.00
2023-03-21T07:24:23.733Z,100.00
2023-03-21T07:26:50.099Z,100.00
2023-03-21T07:29:17.611Z,100.00
2023-03-21T07:31:44.015Z,100.00
2023-03-21T07:34:10.453Z,100.00
2023-03-21T07:36:36.887Z,100.00
2023-03-21T07:39:04.339Z,100.00
2023-03-21T07:41:30.950Z,100.00
2023-03-21T07:43:57.970Z,100.00
2023-03-21T07:46:24.526Z,100.00
2023-03-21T07:48:51.012Z,100.00
2023-03-21T07:51:17.377Z,100.00
2023-03-21T07:53:48.309Z,100.00
2023-03-21T07:56:15.815Z,100.00
2023-03-21T07:58:42.156Z,100.00
2023-03-21T08:01:08.564Z,100.00
2023-03-21T08:03:34.988Z,100.00
2023-03-21T08:06:01.533Z,100.00
2023-03-21T08:08:27.960Z,100.00
2023-03-21T08:10:54.332Z,100.00
2023-03-21T08:13:20.815Z,100.00
2023-03-21T08:15:47.212Z,100.00
2023-03-21T08:18:13.618Z,100.00
2023-03-21T08:20:39.980Z,100.00
2023-03-21T08:23:06.373Z,100.00
2023-03-21T08:25:33.162Z,100.00
2023-03-21T08:27:59.602Z,100.00
2023-03-21T08:30:26.938Z,100.00
2023-03-21T08:33:00.539Z,100.00
2023-03-21T08:35:27.537Z,100.00
2023-03-21T08:37:53.950Z,100.00
2023-03-21T08:40:20.698Z,100.00
2023-03-21T08:42:47.126Z,100.00
2023-03-21T08:45:13.992Z,100.00
2023-03-21T08:47:40.608Z,100.00
2023-03-21T08:50:08.021Z,100.00
2023-03-21T08:52:34.446Z,100.00
2023-03-21T08:55:02.198Z,100.00
2023-03-21T08:57:29.248Z,100.00
2023-03-21T08:59:55.729Z,100.00
2023-03-21T09:02:22.302Z,100.00
2023-03-21T09:04:48.743Z,100.00
2023-03-21T09:07:17.988Z,100.00
2023-03-21T09:09:45.917Z,100.00
2023-03-21T09:12:14.133Z,100.00
2023-03-21T09:14:41.102Z,100.00
2023-03-21T09:17:07.660Z,100.00
2023-03-21T09:19:35.078Z,100.00
2023-03-21T09:22:02.559Z,100.00
2023-03-21T09:24:28.910Z,100.00
2023-03-21T09:26:55.327Z,100.00
2023-03-21T09:29:23.126Z,100.00
2023-03-21T09:31:49.695Z,100.00
2023-03-21T09:34:16.334Z,100.00
2023-03-21T09:36:44.158Z,100.00
2023-03-21T09:39:11.742Z,100.00
2023-03-21T09:41:47.856Z,100.00
2023-03-21T09:44:14.624Z,100.00
2023-03-21T09:46:41.543Z,100.00
2023-03-21T09:49:40.798Z,100.00
2023-03-21T09:52:13.787Z,100.00
2023-03-21T09:54:42.925Z,100.00
2023-03-21T09:57:34.780Z,100.00
2023-03-21T10:00:16.733Z,100.00
2023-03-21T10:02:49.488Z,100.00
2023-03-21T10:05:18.976Z,100.00
2023-03-21T10:08:11.426Z,100.00
2023-03-21T10:10:41.609Z,100.00
2023-03-21T10:13:19.476Z,100.00
2023-03-21T10:15:45.836Z,100.00
2023-03-21T10:18:22.264Z,100.00
2023-03-21T10:20:49.752Z,100.00
2023-03-21T10:23:16.697Z,100.00
2023-03-21T10:25:56.103Z,100.00
2023-03-21T10:28:24.691Z,100.00
2023-03-21T10:30:51.634Z,100.00
2023-03-21T10:33:20.759Z,100.00
2023-03-21T10:35:50.783Z,100.00
2023-03-21T10:38:19.045Z,100.00
2023-03-21T10:40:45.560Z,100.00
2023-03-21T10:43:16.284Z,100.00
2023-03-21T10:45:48.293Z,100.00
2023-03-21T10:48:15.056Z,100.00
2023-03-21T10:50:42.284Z,100.00
2023-03-21T10:53:21.005Z,100.00
2023-03-21T10:55:49.259Z,100.00
2023-03-21T10:58:18.851Z,100.00
2023-03-21T11:00:46.345Z,100.00
2023-03-21T11:03:21.288Z,100.00
2023-03-21T11:05:47.626Z,100.00
2023-03-21T11:08:15.666Z,100.00
2023-03-21T11:11:08.134Z,100.00
2023-03-21T11:13:42.527Z,100.00
2023-03-21T11:16:18.511Z,100.00
2023-03-21T11:18:49.415Z,100.00
2023-03-21T11:21:16.321Z,100.00
2023-03-21T11:23:45.397Z,100.00
2023-03-21T11:26:16.587Z,100.00
2023-03-21T11:28:44.810Z,100.00
2023-03-21T11:31:11.415Z,100.00
2023-03-21T11:34:06.141Z,100.00
2023-03-21T11:36:34.125Z,100.00
2023-03-21T11:39:13.779Z,100.00
2023-03-21T11:41:41.135Z,100.00
2023-03-21T11:44:23.506Z,100.00
2023-03-21T11:46:49.863Z,100.00
2023-03-21T11:49:16.218Z,100.00
2023-03-21T11:52:03.961Z,100.00
2023-03-21T11:54:43.399Z,100.00
2023-03-21T11:57:22.641Z,100.00
2023-03-21T12:00:14.419Z,100.00
2023-03-21T12:03:19.345Z,100.00
2023-03-21T12:05:54.670Z,100.00
2023-03-21T12:08:31.784Z,100.00
2023-03-21T12:11:13.385Z,100.00
2023-03-21T12:13:51.975Z,100.00
2023-03-21T12:16:41.291Z,100.00
2023-03-21T12:19:22.934Z,100.00
2023-03-21T12:21:54.979Z,100.00
2023-03-21T12:24:46.420Z,87.12
2023-03-21T12:27:28.014Z,91.08
2023-03-21T12:30:19.300Z,91.06
2023-03-21T12:32:52.199Z,93.58
2023-03-21T12:35:51.261Z,92.03
2023-03-21T12:38:32.517Z,92.77
2023-03-21T12:41:17.889Z,90.61
2023-03-21T12:44:00.813Z,93.34
2023-03-21T12:46:34.021Z,89.63
2023-03-21T12:49:25.775Z,73.53
2023-03-21T12:52:05.592Z,72.28
2023-03-21T12:54:36.508Z,73.86
2023-03-21T12:57:11.749Z,80.72
2023-03-21T12:59:39.863Z,80.31
2023-03-21T13:02:29.006Z,81.10
2023-03-21T13:04:59.494Z,86.45
2023-03-21T13:07:27.566Z,100.00
2023-03-21T13:09:55.470Z,100.00
2023-03-21T13:12:37.737Z,100.00
2023-03-21T13:15:44.457Z,100.00
2023-03-21T13:18:16.956Z,100.00
2023-03-21T13:20:57.130Z,100.00
2023-03-21T13:23:34.176Z,100.00
2023-03-21T13:26:00.846Z,100.00
2023-03-21T13:28:28.692Z,100.00
2023-03-21T13:31:19.132Z,100.00
2023-03-21T13:33:47.944Z,100.00
2023-03-21T13:36:16.116Z,100.00
2023-03-21T13:38:43.212Z,100.00
2023-03-21T13:41:32.724Z,100.00
2023-03-21T13:44:02.164Z,100.00
2023-03-21T13:46:28.591Z,100.00
2023-03-21T13:48:59.177Z,100.00
2023-03-21T13:51:29.460Z,100.00
2023-03-21T13:54:15.593Z,100.00
2023-03-21T13:56:45.968Z,100.00
2023-03-21T13:59:13.563Z,100.00
2023-03-21T14:01:41.646Z,100.00
2023-03-21T14:04:31.362Z,100.00
2023-03-21T14:07:20.170Z,100.00
2023-03-21T14:09:48.233Z,100.00
2023-03-21T14:12:17.383Z,100.00
2023-03-21T14:14:46.405Z,100.00
2023-03-21T14:17:29.254Z,100.00
2023-03-21T14:20:18.869Z,100.00
2023-03-21T14:22:47.119Z,100.00
2023-03-21T14:25:14.250Z,100.00
2023-03-21T14:27:42.801Z,100.00
2023-03-21T14:30:12.352Z,100.00
2023-03-21T14:32:39.350Z,100.00
2023-03-21T14:35:09.551Z,100.00
2023-03-21T14:37:41.536Z,100.00
2023-03-21T14:43:06.053Z,100.00
2023-03-21T14:45:34.471Z,100.00
2023-03-21T14:48:01.661Z,100.00
2023-03-21T14:50:48.098Z,100.00
2023-03-21T14:53:26.240Z,100.00
2023-03-21T14:56:16.970Z,100.00
2023-03-21T14:58:44.917Z,100.00
2023-03-21T15:01:17.242Z,100.00
2023-03-21T15:03:47.550Z,100.00
2023-03-21T15:06:14.067Z,100.00
2023-03-21T15:08:40.475Z,100.00
2023-03-21T15:11:08.839Z,100.00
2023-03-21T15:13:52.843Z,100.00
2023-03-21T15:16:19.301Z,100.00
2023-03-21T15:18:45.812Z,100.00
2023-03-21T15:21:20.388Z,100.00
2023-03-21T15:23:46.937Z,100.00
2023-03-21T15:26:15.589Z,100.00
2023-03-21T15:28:41.969Z,100.00
2023-03-21T15:31:17.531Z,100.00
2023-03-21T15:33:51.578Z,100.00
2023-03-21T15:36:22.591Z,100.00
2023-03-21T15:38:49.044Z,100.00
2023-03-21T15:41:21.501Z,100.00
2023-03-21T15:43:48.262Z,100.00
2023-03-21T15:46:30.671Z,100.00
2023-03-21T15:49:12.793Z,100.00
2023-03-21T15:51:40.988Z,100.00
2023-03-21T15:54:13.817Z,100.00
2023-03-21T15:56:42.425Z,100.00
2023-03-21T15:59:12.751Z,100.00
2023-03-21T16:01:39.283Z,100.00
2023-03-21T16:04:08.342Z,100.00
2023-03-21T16:06:36.500Z,100.00
2023-03-21T16:09:09.289Z,100.00
2023-03-21T16:11:43.042Z,100.00
2023-03-21T16:14:09.573Z,100.00
2023-03-21T16:16:36.020Z,100.00
2023-03-21T16:19:02.778Z,100.00
2023-03-21T16:21:30.577Z,100.00
2023-03-21T16:23:58.131Z,100.00
2023-03-21T16:26:29.460Z,100.00
2023-03-21T16:28:55.976Z,100.00
2023-03-21T16:31:24.507Z,100.00
2023-03-21T16:33:51.279Z,100.00
2023-03-21T16:36:25.609Z,100.00
2023-03-21T16:38:55.051Z,100.00
2023-03-21T16:41:22.386Z,100.00
2023-03-21T16:43:48.930Z,100.00
2023-03-21T16:46:16.658Z,100.00
2023-03-21T16:48:44.520Z,100.00
2023-03-21T16:53:48.868Z,100.00
2023-03-21T16:56:23.589Z,100.00
2023-03-21T16:58:50.092Z,100.00
2023-03-21T17:01:25.766Z,100.00
2023-03-21T17:03:52.313Z,100.00
2023-03-21T17:06:20.790Z,100.00
2023-03-21T17:08:47.273Z,100.00
2023-03-21T17:11:19.931Z,100.00
2023-03-21T17:13:47.294Z,100.00
2023-03-21T17:16:15.096Z,100.00
2023-03-21T17:18:41.618Z,100.00
2023-03-21T17:21:12.088Z,100.00
2023-03-21T17:23:38.449Z,100.00
2023-03-21T17:26:04.969Z,100.00
2023-03-21T17:28:31.401Z,100.00
2023-03-21T17:30:57.753Z,100.00
2023-03-21T17:33:24.124Z,100.00
2023-03-21T17:35:50.690Z,100.00
2023-03-21T17:38:17.537Z,100.00
2023-03-21T17:40:43.882Z,100.00
2023-03-21T17:43:14.790Z,100.00
2023-03-21T17:45:41.316Z,100.00
2023-03-21T17:48:07.694Z,100.00
2023-03-21T17:50:34.670Z,100.00
2023-03-21T17:53:01.221Z,100.00
2023-03-21T17:55:27.607Z,100.00
2023-03-21T17:57:53.984Z,100.00
2023-03-21T18:00:26.332Z,100.00
2023-03-21T18:02:52.910Z,100.00
2023-03-21T18:05:21.240Z,100.00
2023-03-21T18:08:09.899Z,100.00
2023-03-21T18:10:34.262Z,100.00
2023-03-21T18:13:00.687Z,100.00
2023-03-21T18:15:30.236Z,100.00
2023-03-21T18:17:57.140Z,100.00
2023-03-21T18:20:24.456Z,100.00
2023-03-21T18:22:51.961Z,100.00
2023-03-21T18:25:18.586Z,100.00
2023-03-21T18:28:09.165Z,100.00
2023-03-21T18:30:53.030Z,100.00
2023-03-21T18:33:18.284Z,100.00
2023-03-21T18:35:46.323Z,100.00
2023-03-21T18:38:12.821Z,100.00
2023-03-21T18:40:40.785Z,100.00
2023-03-21T18:45:53.878Z,100.00
2023-03-21T18:48:20.435Z,100.00
2023-03-21T18:50:47.339Z,100.00
2023-03-21T18:53:14.054Z,100.00
2023-03-21T18:55:45.988Z,100.00
2023-03-21T18:58:13.156Z,100.00
2023-03-21T19:00:40.404Z,100.00
2023-03-21T19:03:19.115Z,100.00
2023-03-21T19:05:58.298Z,100.00
2023-03-21T19:08:24.658Z,100.00
2023-03-21T19:10:52.004Z,100.00
2023-03-21T19:13:18.450Z,100.00
2023-03-21T19:15:45.800Z,100.00
2023-03-21T19:18:37.668Z,100.00
2023-03-21T19:21:01.233Z,100.00
2023-03-21T19:23:39.891Z,100.00
2023-03-21T19:26:10.080Z,100.00
2023-03-21T19:28:36.472Z,100.00
2023-03-21T19:31:06.741Z,100.00
2023-03-21T19:33:33.462Z,100.00
2023-03-21T19:36:13.051Z,100.00
2023-03-21T19:38:42.409Z,100.00
2023-03-21T19:41:08.752Z,100.00
2023-03-21T19:43:35.168Z,100.00
2023-03-21T19:46:01.792Z,100.00
2023-03-21T19:48:28.395Z,100.00
2023-03-21T19:51:26.401Z,100.00
2023-03-21T19:53:41.260Z,100.00
2023-03-21T19:56:20.332Z,100.00
2023-03-21T19:58:48.490Z,100.00
2023-03-21T20:01:15.823Z,100.00
2023-03-21T20:03:44.148Z,100.00
2023-03-21T20:06:11.419Z,100.00
2023-03-21T20:09:05.296Z,100.00
2023-03-21T20:11:24.199Z,100.00
2023-03-21T20:13:50.655Z,100.00
2023-03-21T20:16:18.246Z,100.00
2023-03-21T20:18:45.422Z,100.00
2023-03-21T20:21:17.567Z,100.00
2023-03-21T20:23:49.149Z,100.00
2023-03-21T20:26:16.255Z,100.00
2023-03-21T20:28:56.043Z,100.00
2023-03-21T20:31:29.345Z,100.00
2023-03-21T20:33:56.084Z,100.00
2023-03-21T20:36:41.351Z,100.00
2023-03-21T20:39:09.554Z,100.00
2023-03-21T20:41:35.982Z,100.00
2023-03-21T20:46:48.923Z,100.00
2023-03-21T20:49:15.539Z,100.00
2023-03-21T20:54:29.572Z,100.00
2023-03-21T20:56:56.716Z,100.00
2023-03-21T20:59:27.141Z,100.00
2023-03-21T21:01:55.736Z,100.00
2023-03-21T21:04:23.118Z,100.00
2023-03-21T21:06:53.938Z,100.00
2023-03-21T21:09:20.792Z,100.00
2023-03-21T21:14:35.746Z,100.00
2023-03-21T21:17:17.055Z,100.00
2023-03-21T21:19:52.333Z,100.00
2023-03-21T21:22:18.765Z,100.00
2023-03-21T21:24:45.246Z,100.00
2023-03-21T21:27:11.970Z,100.00
2023-03-21T21:29:38.462Z,100.00
2023-03-21T21:32:05.212Z,100.00
2023-03-21T21:34:31.714Z,100.00
2023-03-21T21:36:58.163Z,100.00
2023-03-21T21:39:26.386Z,100.00
2023-03-21T21:41:52.815Z,100.00
2023-03-21T21:44:19.604Z,100.00
2023-03-21T21:46:46.252Z,100.00
2023-03-21T21:49:12.657Z,100.00
2023-03-21T21:51:41.073Z,100.00
2023-03-21T21:54:07.440Z,100.00
2023-03-21T21:56:38.377Z,100.00
2023-03-21T21:59:05.457Z,100.00
2023-03-21T22:01:34.516Z,100.00
2023-03-21T22:04:07.945Z,100.00
2023-03-21T22:06:34.467Z,100.00
2023-03-21T22:09:01.014Z,100.00
2023-03-21T22:11:27.432Z,100.00
2023-03-21T22:13:53.782Z,100.00
2023-03-21T22:16:20.532Z,100.00
2023-03-21T22:18:46.893Z,100.00
2023-03-21T22:21:13.415Z,100.00
2023-03-21T22:23:41.342Z,100.00
2023-03-21T22:26:08.090Z,100.00
2023-03-21T22:28:34.559Z,100.00
2023-03-21T22:31:10.742Z,100.00
2023-03-21T22:33:37.315Z,100.00
2023-03-21T22:36:03.905Z,100.00
2023-03-21T22:38:30.433Z,100.00
2023-03-21T22:40:57.705Z,100.00
2023-03-21T22:43:24.331Z,100.00
2023-03-21T22:45:50.813Z,100.00
2023-03-21T22:48:17.253Z,100.00
2023-03-21T22:50:43.847Z,100.00
2023-03-21T22:53:10.187Z,100.00
2023-03-21T22:55:36.802Z,100.00
2023-03-21T22:58:03.269Z,100.00
2023-03-21T23:00:29.776Z,100.00
2023-03-21T23:02:57.136Z,100.00
2023-03-21T23:05:23.590Z,100.00
2023-03-21T23:07:49.926Z,100.00
2023-03-21T23:10:16.592Z,100.00
2023-03-21T23:12:42.977Z,100.00
2023-03-21T23:15:09.802Z,100.00
2023-03-21T23:17:36.367Z,100.00
2023-03-21T23:20:06.928Z,100.00
2023-03-21T23:22:33.970Z,100.00
2023-03-21T23:25:00.412Z,100.00
2023-03-21T23:27:26.765Z,100.00
2023-03-21T23:29:54.208Z,100.00
2023-03-21T23:32:20.700Z,100.00
2023-03-21T23:34:47.082Z,100.00
2023-03-21T23:37:13.430Z,100.00
2023-03-21T23:39:39.953Z,100.00
2023-03-21T23:42:09.419Z,100.00
2023-03-21T23:44:35.809Z,100.00
2023-03-21T23:47:02.386Z,100.00
2023-03-21T23:49:28.982Z,100.00
2023-03-21T23:51:55.403Z,100.00
2023-03-21T23:54:21.867Z,100.00
2023-03-21T23:56:48.481Z,100.00
2023-03-21T23:59:15.000Z,100.00
